Terminal Aerodrome Forecast
Issued by NWS

Home | Current Version | Previous Version | Text Only | Print | Product List | Glossary On
Versions: 1 2 3 4 5 6 7 8 9 10 11 12 13 14 15 16 17 18 19 20
169
FTUS41 KBTV 120538
TAFRUT
TAF
KRUT 120538Z 1206/1306 30006KT P6SM VCSH SCT025 OVC035
     FM121300 19004KT P6SM SCT150
     FM121500 20006KT P6SM SCT045
     FM121700 21008KT P6SM BKN040
     FM122300 18007KT P6SM SCT060
     FM130200 17008KT P6SM BKN050
     FM130500 17008KT P6SM VCSH BKN045
      AMD LTD TO CLD VIS AND WIND=

USA.gov is the U.S. government's official web portal to all federal, state and local government web resources and services.